createdAt,value
2022-07-29T00:02:30.627Z,100.00
2022-07-29T00:04:57.922Z,100.00
2022-07-29T00:07:26.115Z,100.00
2022-07-29T00:09:53.748Z,100.00
2022-07-29T00:12:25.471Z,100.00
2022-07-29T00:14:55.792Z,100.00
2022-07-29T00:17:24.088Z,100.00
2022-07-29T00:19:51.895Z,100.00
2022-07-29T00:22:19.800Z,100.00
2022-07-29T00:24:50.170Z,100.00
2022-07-29T00:27:19.372Z,100.00
2022-07-29T00:29:46.698Z,100.00
2022-07-29T00:32:13.989Z,100.00
2022-07-29T00:34:59.951Z,100.00
2022-07-29T00:37:27.395Z,100.00
2022-07-29T00:39:54.626Z,100.00
2022-07-29T00:42:21.947Z,100.00
2022-07-29T00:44:49.151Z,100.00
2022-07-29T00:47:16.780Z,100.00
2022-07-29T00:49:44.629Z,100.00
2022-07-29T00:52:12.821Z,100.00
2022-07-29T00:54:45.039Z,100.00
2022-07-29T00:57:13.277Z,100.00
2022-07-29T00:59:41.133Z,100.00
2022-07-29T01:02:08.571Z,100.00
2022-07-29T01:04:35.961Z,100.00
2022-07-29T01:07:04.565Z,100.00
2022-07-29T01:09:45.459Z,100.00
2022-07-29T01:12:27.456Z,100.00
2022-07-29T01:14:56.963Z,100.00
2022-07-29T01:18:01.429Z,100.00
2022-07-29T01:20:38.973Z,100.00
2022-07-29T01:23:27.238Z,100.00
2022-07-29T01:26:32.467Z,100.00
2022-07-29T01:29:35.801Z,100.00
2022-07-29T01:32:28.818Z,100.00
2022-07-29T01:35:06.251Z,100.00
2022-07-29T01:37:44.970Z,100.00
2022-07-29T01:40:38.486Z,100.00
2022-07-29T01:43:12.891Z,100.00
2022-07-29T01:45:59.051Z,100.00
2022-07-29T01:48:38.701Z,100.00
2022-07-29T01:51:30.888Z,100.00
2022-07-29T01:54:05.668Z,100.00
2022-07-29T01:56:35.007Z,100.00
2022-07-29T01:59:04.391Z,100.00
2022-07-29T02:01:34.683Z,100.00
2022-07-29T02:04:05.369Z,100.00
2022-07-29T02:06:34.806Z,100.00
2022-07-29T02:09:03.728Z,100.00
2022-07-29T02:11:34.619Z,100.00
2022-07-29T02:14:03.407Z,100.00
2022-07-29T02:16:34.844Z,100.00
2022-07-29T02:19:07.940Z,100.00
2022-07-29T02:21:36.719Z,100.00
2022-07-29T02:24:06.613Z,100.00
2022-07-29T02:26:35.229Z,100.00
2022-07-29T02:29:03.658Z,100.00
2022-07-29T02:31:37.223Z,100.00
2022-07-29T02:34:10.960Z,100.00
2022-07-29T02:36:39.258Z,100.00
2022-07-29T02:39:10.792Z,100.00
2022-07-29T02:41:48.910Z,100.00
2022-07-29T02:44:20.225Z,100.00
2022-07-29T02:46:54.800Z,100.00
2022-07-29T02:49:39.744Z,100.00
2022-07-29T02:52:39.118Z,100.00
2022-07-29T02:55:17.839Z,100.00
2022-07-29T02:57:54.521Z,100.00
2022-07-29T03:00:29.940Z,100.00
2022-07-29T03:03:05.035Z,100.00
2022-07-29T03:05:32.560Z,100.00
2022-07-29T03:08:05.309Z,100.00
2022-07-29T03:10:34.213Z,100.00
2022-07-29T03:13:02.416Z,100.00
2022-07-29T03:15:30.589Z,100.00
2022-07-29T03:17:58.610Z,100.00
2022-07-29T03:20:26.965Z,100.00
2022-07-29T03:22:54.189Z,100.00
2022-07-29T03:25:21.829Z,100.00
2022-07-29T03:27:49.797Z,100.00
2022-07-29T03:30:18.384Z,100.00
2022-07-29T03:32:52.274Z,100.00
2022-07-29T03:35:23.817Z,100.00
2022-07-29T03:37:51.216Z,100.00
2022-07-29T03:40:24.292Z,100.00
2022-07-29T03:42:54.544Z,100.00
2022-07-29T03:45:22.749Z,100.00
2022-07-29T03:48:00.920Z,100.00
2022-07-29T03:50:32.013Z,100.00
2022-07-29T03:53:01.054Z,100.00
2022-07-29T03:55:31.895Z,100.00
2022-07-29T03:58:01.229Z,100.00
2022-07-29T04:00:29.181Z,100.00
2022-07-29T04:02:57.966Z,100.00
2022-07-29T04:05:25.225Z,100.00
2022-07-29T04:07:52.635Z,100.00
2022-07-29T04:10:28.338Z,100.00
2022-07-29T04:13:00.440Z,100.00
2022-07-29T04:15:31.230Z,100.00
2022-07-29T04:18:00.238Z,100.00
2022-07-29T04:20:27.749Z,100.00
2022-07-29T04:22:55.519Z,100.00
2022-07-29T04:25:23.102Z,100.00
2022-07-29T04:28:02.493Z,100.00
2022-07-29T04:30:31.169Z,100.00
2022-07-29T04:32:58.889Z,100.00
2022-07-29T04:35:26.438Z,100.00
2022-07-29T04:37:53.949Z,100.00
2022-07-29T04:40:22.087Z,100.00
2022-07-29T04:42:49.620Z,100.00
2022-07-29T04:45:22.331Z,100.00
2022-07-29T04:47:50.551Z,100.00
2022-07-29T04:50:17.959Z,100.00
2022-07-29T04:52:45.423Z,100.00
2022-07-29T04:55:13.119Z,100.00
2022-07-29T04:57:40.518Z,100.00
2022-07-29T05:00:09.207Z,100.00
2022-07-29T05:02:36.806Z,100.00
2022-07-29T05:05:04.578Z,100.00
2022-07-29T05:07:32.000Z,100.00
2022-07-29T05:09:59.511Z,100.00
2022-07-29T05:12:27.577Z,100.00
2022-07-29T05:14:54.937Z,100.00
2022-07-29T05:17:22.962Z,100.00
2022-07-29T05:19:52.524Z,100.00
2022-07-29T05:22:21.155Z,100.00
2022-07-29T05:24:48.525Z,100.00
2022-07-29T05:27:16.030Z,100.00
2022-07-29T05:29:45.797Z,100.00
2022-07-29T05:32:14.199Z,100.00
2022-07-29T05:34:51.354Z,97.22
2022-07-29T05:37:22.397Z,100.00
2022-07-29T05:39:50.580Z,100.00
2022-07-29T05:42:24.349Z,100.00
2022-07-29T05:44:52.182Z,100.00
2022-07-29T05:47:20.129Z,100.00
2022-07-29T05:49:47.662Z,100.00
2022-07-29T05:52:15.194Z,100.00
2022-07-29T05:54:43.047Z,100.00
2022-07-29T05:57:18.014Z,100.00
2022-07-29T05:59:45.757Z,100.00
2022-07-29T06:02:13.262Z,100.00
2022-07-29T06:04:40.910Z,100.00
2022-07-29T06:07:08.350Z,100.00
2022-07-29T06:09:36.544Z,100.00
2022-07-29T06:12:04.670Z,100.00
2022-07-29T06:14:32.381Z,100.00
2022-07-29T06:17:03.836Z,100.00
2022-07-29T06:19:31.578Z,100.00
2022-07-29T06:21:59.387Z,96.15
2022-07-29T06:24:26.991Z,100.00
2022-07-29T06:26:54.541Z,100.00
2022-07-29T06:29:22.209Z,100.00
2022-07-29T06:31:49.848Z,100.00
2022-07-29T06:34:17.754Z,85.75
2022-07-29T06:36:46.274Z,95.56
2022-07-29T06:39:14.449Z,96.81
2022-07-29T06:41:42.314Z,95.74
2022-07-29T06:44:12.750Z,94.94
2022-07-29T06:46:41.731Z,86.15
2022-07-29T06:49:09.591Z,98.04
2022-07-29T06:51:37.707Z,100.00
2022-07-29T06:54:06.978Z,100.00
2022-07-29T06:56:40.420Z,100.00
2022-07-29T06:59:09.582Z,100.00
2022-07-29T07:01:43.161Z,100.00
2022-07-29T07:04:12.415Z,100.00
2022-07-29T07:06:40.117Z,100.00
2022-07-29T07:09:08.460Z,100.00
2022-07-29T07:11:35.921Z,85.69
2022-07-29T07:14:04.400Z,91.48
2022-07-29T07:16:33.032Z,89.52
2022-07-29T07:19:01.248Z,90.07
2022-07-29T07:21:30.499Z,70.38
2022-07-29T07:23:59.589Z,73.32
2022-07-29T07:26:28.296Z,67.06
2022-07-29T07:28:56.071Z,62.29
2022-07-29T07:31:23.805Z,69.29
2022-07-29T07:33:51.486Z,70.07
2022-07-29T07:36:19.034Z,71.11
2022-07-29T07:38:46.477Z,60.38
2022-07-29T07:41:14.447Z,55.57
2022-07-29T07:43:42.169Z,61.91
2022-07-29T07:46:09.738Z,65.48
2022-07-29T07:48:37.499Z,58.95
2022-07-29T07:51:05.112Z,53.05
2022-07-29T07:53:32.734Z,59.25
2022-07-29T07:56:10.530Z,53.98
2022-07-29T07:58:39.926Z,55.98
2022-07-29T08:01:07.871Z,59.75
2022-07-29T08:03:35.754Z,62.79
2022-07-29T08:06:04.319Z,58.48
2022-07-29T08:08:31.936Z,62.43
2022-07-29T08:11:03.218Z,69.73
2022-07-29T08:13:34.372Z,70.68
2022-07-29T08:16:02.987Z,61.23
2022-07-29T08:18:33.666Z,64.15
2022-07-29T08:21:01.459Z,68.24
2022-07-29T08:23:47.289Z,62.06
2022-07-29T08:26:17.818Z,66.13
2022-07-29T08:28:47.291Z,67.51
2022-07-29T08:31:15.654Z,64.74
2022-07-29T08:33:43.767Z,58.35
2022-07-29T08:36:11.322Z,62.60
2022-07-29T08:38:38.887Z,60.67
2022-07-29T08:41:07.436Z,56.59
2022-07-29T08:43:38.672Z,59.49
2022-07-29T08:46:08.107Z,54.95
2022-07-29T08:48:35.684Z,56.46
2022-07-29T08:51:04.380Z,57.50
2022-07-29T08:53:33.083Z,51.53
2022-07-29T08:56:03.167Z,49.98
2022-07-29T08:58:37.112Z,48.38
2022-07-29T09:01:06.111Z,47.37
2022-07-29T09:03:37.627Z,50.70
2022-07-29T09:06:06.068Z,49.68
2022-07-29T09:08:35.060Z,48.88
2022-07-29T09:11:03.977Z,52.08
2022-07-29T09:13:32.851Z,46.53
2022-07-29T09:16:03.404Z,49.09
2022-07-29T09:18:41.896Z,46.96
2022-07-29T09:21:31.194Z,45.74
2022-07-29T09:24:12.439Z,46.47
2022-07-29T09:26:44.918Z,44.30
2022-07-29T09:29:20.689Z,44.48
2022-07-29T09:31:51.667Z,48.01
2022-07-29T09:34:24.819Z,48.60
2022-07-29T09:36:53.608Z,44.38
2022-07-29T09:39:32.041Z,48.52
2022-07-29T09:42:07.299Z,45.23
2022-07-29T09:44:49.476Z,44.54
2022-07-29T09:47:19.085Z,44.60
2022-07-29T09:50:00.783Z,41.25
2022-07-29T09:52:30.597Z,44.85
2022-07-29T09:55:09.662Z,42.18
2022-07-29T09:57:37.390Z,40.11
2022-07-29T10:00:14.591Z,39.82
2022-07-29T10:02:47.629Z,40.36
2022-07-29T10:05:23.654Z,38.02
2022-07-29T10:07:54.084Z,38.10
2022-07-29T10:10:24.605Z,36.73
2022-07-29T10:12:55.572Z,40.15
2022-07-29T10:15:28.919Z,41.34
2022-07-29T10:17:59.829Z,41.71
2022-07-29T10:20:29.465Z,43.25
2022-07-29T10:22:58.315Z,40.86
2022-07-29T10:25:27.182Z,37.94
2022-07-29T10:27:56.180Z,35.62
2022-07-29T10:30:25.549Z,37.71
2022-07-29T10:33:19.527Z,39.31
2022-07-29T10:36:28.718Z,41.50
2022-07-29T10:39:17.877Z,39.13
2022-07-29T10:42:19.856Z,40.31
2022-07-29T10:44:49.158Z,40.04
2022-07-29T10:47:27.894Z,38.00
2022-07-29T10:50:01.489Z,37.68
2022-07-29T10:52:51.333Z,36.89
2022-07-29T10:55:43.064Z,36.50
2022-07-29T10:58:21.262Z,38.32
2022-07-29T11:00:51.551Z,37.37
2022-07-29T11:03:49.325Z,35.47
2022-07-29T11:09:38.423Z,38.69
2022-07-29T11:12:38.807Z,40.68
2022-07-29T11:15:10.146Z,40.06
2022-07-29T11:17:53.681Z,35.90
2022-07-29T11:20:42.859Z,38.08
2022-07-29T11:23:33.784Z,36.95
2022-07-29T11:26:23.475Z,35.91
2022-07-29T11:29:02.871Z,37.81
2022-07-29T11:31:36.635Z,35.80
2022-07-29T11:34:36.899Z,37.98
2022-07-29T11:37:14.103Z,36.74
2022-07-29T11:39:46.269Z,35.35
2022-07-29T11:42:30.460Z,36.93
2022-07-29T11:48:03.681Z,37.00
2022-07-29T11:50:37.888Z,37.54
2022-07-29T11:53:14.594Z,36.17
2022-07-29T11:58:31.553Z,35.48
2022-07-29T12:01:04.085Z,36.57
2022-07-29T12:03:35.742Z,36.94
2022-07-29T12:06:17.953Z,34.25
2022-07-29T12:07:03.352Z,37.58
2022-07-29T12:08:46.143Z,36.58
2022-07-29T12:11:23.425Z,37.63
2022-07-29T12:13:53.046Z,35.27
2022-07-29T12:16:27.673Z,37.15
2022-07-29T12:19:02.967Z,36.08
2022-07-29T12:21:53.862Z,36.60
2022-07-29T12:24:26.944Z,36.83
2022-07-29T12:26:57.768Z,37.73
2022-07-29T12:29:34.868Z,35.02
2022-07-29T12:32:05.912Z,36.95
2022-07-29T12:34:42.550Z,34.70
2022-07-29T12:37:11.460Z,36.64
2022-07-29T12:39:39.748Z,35.94
2022-07-29T12:42:18.509Z,35.67
2022-07-29T12:44:50.557Z,36.88
2022-07-29T12:47:20.066Z,35.97
2022-07-29T12:49:48.477Z,34.42
2022-07-29T12:52:31.099Z,36.73
2022-07-29T12:55:01.822Z,35.72
2022-07-29T12:57:29.481Z,36.14
2022-07-29T13:00:16.195Z,37.39
2022-07-29T13:02:44.858Z,36.50
2022-07-29T13:05:13.923Z,38.41
2022-07-29T13:07:55.389Z,38.12
2022-07-29T13:10:25.193Z,38.31
2022-07-29T13:13:12.367Z,36.07
2022-07-29T13:15:44.898Z,36.83
2022-07-29T13:18:47.957Z,37.00
2022-07-29T13:21:19.099Z,36.98
2022-07-29T13:23:46.573Z,38.61
2022-07-29T13:26:14.452Z,35.83
2022-07-29T13:28:44.103Z,35.63
2022-07-29T13:31:12.723Z,37.13
2022-07-29T13:33:40.688Z,37.66
2022-07-29T13:36:08.676Z,35.97
2022-07-29T13:38:36.158Z,35.31
2022-07-29T13:41:03.840Z,35.21
2022-07-29T13:43:31.419Z,33.57
2022-07-29T13:45:59.059Z,34.30
2022-07-29T13:48:26.977Z,35.51
2022-07-29T13:50:54.689Z,35.54
2022-07-29T13:53:26.965Z,35.24
2022-07-29T13:55:55.282Z,34.40
2022-07-29T13:58:23.221Z,35.92
2022-07-29T14:00:51.290Z,35.87
2022-07-29T14:03:19.352Z,34.75
2022-07-29T14:05:47.110Z,35.14
2022-07-29T14:08:14.579Z,34.50
2022-07-29T14:10:42.067Z,35.53
2022-07-29T14:13:25.169Z,36.22
2022-07-29T14:15:54.782Z,35.45
2022-07-29T14:18:22.488Z,35.79
2022-07-29T14:20:50.282Z,34.88
2022-07-29T14:23:18.391Z,33.97
2022-07-29T14:25:47.866Z,35.12
2022-07-29T14:28:17.317Z,33.88
2022-07-29T14:30:44.999Z,34.15
2022-07-29T14:33:12.823Z,34.30
2022-07-29T14:35:40.550Z,35.06
2022-07-29T14:38:08.239Z,34.25
2022-07-29T14:40:35.965Z,33.36
2022-07-29T14:43:04.169Z,33.61
2022-07-29T14:45:32.852Z,33.04
2022-07-29T14:48:01.228Z,32.58
2022-07-29T14:50:31.845Z,31.97
2022-07-29T14:53:01.508Z,32.51
2022-07-29T14:55:29.114Z,32.67
2022-07-29T14:58:07.787Z,31.36
2022-07-29T15:00:38.334Z,31.49
2022-07-29T15:03:06.650Z,30.30
2022-07-29T15:05:39.189Z,29.65
2022-07-29T15:08:06.742Z,30.80
2022-07-29T15:10:34.285Z,30.39
2022-07-29T15:13:01.869Z,29.45
2022-07-29T15:15:29.508Z,29.67
2022-07-29T15:17:57.274Z,29.66
2022-07-29T15:20:27.068Z,29.95
2022-07-29T15:22:56.785Z,28.44
2022-07-29T15:25:24.781Z,29.43
2022-07-29T15:27:55.600Z,30.47
2022-07-29T15:30:34.300Z,29.95
2022-07-29T15:33:04.433Z,30.75
2022-07-29T15:35:32.218Z,28.20
2022-07-29T15:37:59.825Z,27.35
2022-07-29T15:40:27.353Z,27.98
2022-07-29T15:42:54.881Z,30.18
2022-07-29T15:45:22.452Z,29.63
2022-07-29T15:47:50.312Z,27.60
2022-07-29T15:50:19.940Z,27.20
2022-07-29T15:52:47.478Z,28.01
2022-07-29T15:55:16.081Z,29.40
2022-07-29T15:57:43.863Z,28.70
2022-07-29T16:00:12.031Z,28.52
2022-07-29T16:02:39.641Z,27.13
2022-07-29T16:05:09.461Z,28.82
2022-07-29T16:07:38.090Z,29.13
2022-07-29T16:10:08.150Z,28.24
2022-07-29T16:12:35.743Z,27.91
2022-07-29T16:15:08.960Z,27.73
2022-07-29T16:17:38.473Z,27.44
2022-07-29T16:20:07.150Z,29.35
2022-07-29T16:22:34.794Z,29.60
2022-07-29T16:25:02.573Z,28.52
2022-07-29T16:27:35.437Z,28.13
2022-07-29T16:30:11.105Z,27.84
2022-07-29T16:32:40.108Z,29.57
2022-07-29T16:35:11.739Z,29.90
2022-07-29T16:37:40.719Z,28.09
2022-07-29T16:40:11.781Z,28.20
2022-07-29T16:42:47.742Z,29.05
2022-07-29T16:45:18.123Z,27.00
2022-07-29T16:47:50.094Z,28.67
2022-07-29T16:50:18.405Z,29.49
2022-07-29T16:52:46.150Z,28.88
2022-07-29T16:55:13.839Z,27.71
2022-07-29T16:57:43.076Z,27.62
2022-07-29T17:00:11.441Z,28.99
2022-07-29T17:02:39.530Z,30.18
2022-07-29T17:05:08.555Z,28.42
2022-07-29T17:07:37.253Z,29.78
2022-07-29T17:10:09.511Z,28.20
2022-07-29T17:12:38.520Z,27.32
2022-07-29T17:15:08.713Z,27.44
2022-07-29T17:17:39.577Z,27.80
2022-07-29T17:20:24.986Z,29.18
2022-07-29T17:22:52.462Z,31.00
2022-07-29T17:25:21.459Z,31.55
2022-07-29T17:27:51.042Z,31.93
2022-07-29T17:30:18.770Z,32.08
2022-07-29T17:32:46.539Z,30.06
2022-07-29T17:35:33.001Z,28.82
2022-07-29T17:38:00.671Z,29.45
2022-07-29T17:40:28.221Z,30.99
2022-07-29T17:42:56.445Z,32.16
2022-07-29T17:45:23.897Z,32.92
2022-07-29T17:47:51.621Z,33.10
2022-07-29T17:50:19.008Z,30.72
2022-07-29T17:52:46.634Z,29.55
2022-07-29T17:55:14.507Z,30.30
2022-07-29T17:57:41.972Z,33.44
2022-07-29T18:00:09.868Z,38.45
2022-07-29T18:02:37.934Z,39.47
2022-07-29T18:05:06.412Z,39.60
2022-07-29T18:07:34.152Z,39.84
2022-07-29T18:10:01.729Z,41.93
2022-07-29T18:12:29.410Z,44.17
2022-07-29T18:14:58.137Z,44.83
2022-07-29T18:17:34.448Z,45.04
2022-07-29T18:20:14.127Z,46.23
2022-07-29T18:22:41.992Z,46.47
2022-07-29T18:25:10.333Z,46.13
2022-07-29T18:27:38.403Z,46.36
2022-07-29T18:30:07.514Z,48.52
2022-07-29T18:32:35.102Z,50.68
2022-07-29T18:35:05.440Z,51.83
2022-07-29T18:38:00.936Z,53.97
2022-07-29T18:40:26.162Z,54.13
2022-07-29T18:42:53.812Z,55.32
2022-07-29T18:45:21.464Z,54.54
2022-07-29T18:47:49.768Z,56.69
2022-07-29T18:50:19.670Z,62.08
2022-07-29T18:52:47.101Z,65.00
2022-07-29T18:55:15.049Z,69.03
2022-07-29T18:57:55.793Z,72.32
2022-07-29T19:00:24.839Z,77.63
2022-07-29T19:02:53.154Z,74.01
2022-07-29T19:05:21.467Z,71.76
2022-07-29T19:07:49.633Z,77.50
2022-07-29T19:10:17.872Z,84.58
2022-07-29T19:12:45.482Z,85.47
2022-07-29T19:15:20.012Z,87.28
2022-07-29T19:17:48.959Z,89.37
2022-07-29T19:20:16.636Z,89.01
2022-07-29T19:22:44.250Z,89.27
2022-07-29T19:25:15.149Z,83.02
2022-07-29T19:27:42.970Z,82.65
2022-07-29T19:30:10.958Z,87.04
2022-07-29T19:32:39.196Z,86.42
2022-07-29T19:35:25.579Z,89.98
2022-07-29T19:37:54.071Z,90.70
2022-07-29T19:40:22.740Z,93.90
2022-07-29T19:42:51.922Z,90.05
2022-07-29T19:45:20.970Z,84.40
2022-07-29T19:47:49.169Z,90.37
2022-07-29T19:50:17.134Z,92.06
2022-07-29T19:52:47.369Z,92.15
2022-07-29T19:55:15.847Z,94.74
2022-07-29T19:57:43.979Z,96.16
2022-07-29T20:00:14.555Z,96.77
2022-07-29T20:02:43.194Z,91.17
2022-07-29T20:05:11.849Z,88.76
2022-07-29T20:07:40.120Z,90.03
2022-07-29T20:10:09.523Z,92.94
2022-07-29T20:12:38.381Z,91.31
2022-07-29T20:15:13.825Z,94.45
2022-07-29T20:17:44.761Z,96.27
2022-07-29T20:20:12.681Z,95.22
2022-07-29T20:22:40.268Z,90.95
2022-07-29T20:25:10.204Z,90.24
2022-07-29T20:27:40.751Z,94.38
2022-07-29T20:30:13.626Z,95.79
2022-07-29T20:32:42.213Z,96.24
2022-07-29T20:35:12.279Z,98.21
2022-07-29T20:37:55.619Z,97.18
2022-07-29T20:40:25.650Z,92.45
2022-07-29T20:42:55.084Z,91.28
2022-07-29T20:45:24.014Z,94.11
2022-07-29T20:47:52.810Z,94.87
2022-07-29T20:50:23.847Z,96.99
2022-07-29T20:52:52.686Z,96.39
2022-07-29T20:55:20.259Z,92.24
2022-07-29T20:57:47.888Z,87.85
2022-07-29T21:00:15.572Z,93.65
2022-07-29T21:02:43.190Z,96.36
2022-07-29T21:05:11.119Z,97.01
2022-07-29T21:07:38.682Z,97.63
2022-07-29T21:10:09.923Z,99.55
2022-07-29T21:12:37.901Z,87.87
2022-07-29T21:15:08.870Z,89.42
2022-07-29T21:17:37.999Z,95.03
2022-07-29T21:20:08.858Z,98.96
2022-07-29T21:22:36.351Z,100.00
2022-07-29T21:25:04.351Z,100.00
2022-07-29T21:27:51.362Z,100.00
2022-07-29T21:30:19.515Z,98.51
2022-07-29T21:32:47.229Z,99.13
2022-07-29T21:35:35.893Z,100.00
2022-07-29T21:38:02.770Z,100.00
2022-07-29T21:40:30.799Z,100.00
2022-07-29T21:42:58.432Z,100.00
2022-07-29T21:45:26.631Z,100.00
2022-07-29T21:47:54.120Z,100.00
2022-07-29T21:50:21.774Z,99.95
2022-07-29T21:52:49.310Z,100.00
2022-07-29T21:55:17.971Z,100.00
2022-07-29T21:57:47.191Z,100.00
2022-07-29T22:00:16.044Z,100.00
2022-07-29T22:02:46.630Z,100.00
2022-07-29T22:05:15.322Z,100.00
2022-07-29T22:07:55.979Z,100.00
2022-07-29T22:10:26.340Z,100.00
2022-07-29T22:12:55.656Z,100.00
2022-07-29T22:15:26.211Z,100.00
2022-07-29T22:17:53.811Z,100.00
2022-07-29T22:20:21.712Z,100.00
2022-07-29T22:22:49.512Z,100.00
2022-07-29T22:25:17.042Z,100.00
2022-07-29T22:27:44.941Z,100.00
2022-07-29T22:30:13.432Z,100.00
2022-07-29T22:32:41.052Z,100.00
2022-07-29T22:35:08.981Z,100.00
2022-07-29T22:37:36.645Z,100.00
2022-07-29T22:40:05.117Z,100.00
2022-07-29T22:42:35.705Z,100.00
2022-07-29T22:45:03.865Z,100.00
2022-07-29T22:47:46.481Z,100.00
2022-07-29T22:50:16.670Z,100.00
2022-07-29T22:52:45.076Z,100.00
2022-07-29T22:55:12.499Z,100.00
2022-07-29T22:57:41.598Z,100.00
2022-07-29T23:00:10.213Z,100.00
2022-07-29T23:02:38.592Z,100.00
2022-07-29T23:05:06.754Z,100.00
2022-07-29T23:07:34.307Z,100.00
2022-07-29T23:10:02.343Z,100.00
2022-07-29T23:12:29.861Z,100.00
2022-07-29T23:14:57.599Z,100.00
2022-07-29T23:17:25.036Z,100.00
2022-07-29T23:19:52.580Z,100.00
2022-07-29T23:22:20.183Z,100.00
2022-07-29T23:24:47.800Z,100.00
2022-07-29T23:27:15.332Z,100.00
2022-07-29T23:29:42.776Z,100.00
2022-07-29T23:32:10.244Z,100.00
2022-07-29T23:34:37.556Z,100.00
2022-07-29T23:37:05.086Z,100.00
2022-07-29T23:39:32.428Z,100.00
2022-07-29T23:41:59.671Z,100.00
2022-07-29T23:44:27.949Z,100.00
2022-07-29T23:46:55.637Z,100.00
2022-07-29T23:49:22.986Z,100.00
2022-07-29T23:51:50.178Z,100.00
2022-07-29T23:54:17.478Z,100.00
2022-07-29T23:56:44.635Z,100.00
2022-07-29T23:59:13.962Z,100.00
